Disclaimer

Please do not use the information listed here in-flight or in-navigation, as they are not provided to us by the airports but are provided by volunteers, so they might be outdated.

Search


Regions


Airport information page

Radio informations:
Tower (TWR) - 119.7 MHz
Ground (GND) - 121.9 MHz
SAR - 123.1 MHz

Airport informations:
Latitude: 39° 33' 16.52" N
Longitude: 027° 00' 49.80" E
Elevation: 50 feet - 15 meters
Operating hours: Remarks
Operating agency: Civil government, landing fees and diplomatic clearance may be required
Timezone: UTC+2(+3DT) - Dates notified by NOTAM
Fuel: N/A

Runway information:
05/23 - 6824 x 98 feet< - >2080 x 30 meters

Recent METARs:
LTFD 190250Z 06004KT 010V120 9999 -SHRA BKN035 BKN090 13/13 Q1011
LTFD 190350Z 06005KT 030V090 9999 SCT030 BKN090 14/14 Q1010 RESHRA
LTFD 190350Z 06005KT 030V090 9999 SCT030 BKN090 14/14 Q1010 RESHRA

Airport on the map: